sensor_id;sensor_type;location;lat;lon;timestamp;pressure;altitude;pressure_sealevel;temperature;humidity
71964;BME280;59834;52.124;5.422;2023-07-28T00:02:01;100463.03;;;17.53;100.00
71964;BME280;59834;52.124;5.422;2023-07-28T00:04:27;100470.84;;;17.55;100.00
71964;BME280;59834;52.124;5.422;2023-07-28T00:06:54;100461.91;;;17.56;100.00
71964;BME280;59834;52.124;5.422;2023-07-28T00:09:20;100471.81;;;17.54;100.00
71964;BME280;59834;52.124;5.422;2023-07-28T00:11:49;100463.03;;;17.53;100.00
71964;BME280;59834;52.124;5.422;2023-07-28T00:14:15;100467.19;;;17.56;100.00
71964;BME280;59834;52.124;5.422;2023-07-28T00:16:42;100470.00;;;17.54;100.00
71964;BME280;59834;52.124;5.422;2023-07-28T00:19:08;100464.72;;;17.54;100.00
71964;BME280;59834;52.124;5.422;2023-07-28T00:21:35;100460.25;;;17.55;100.00
71964;BME280;59834;52.124;5.422;2023-07-28T00:24:01;100457.44;;;17.56;100.00
71964;BME280;59834;52.124;5.422;2023-07-28T00:26:28;100452.97;;;17.57;100.00
71964;BME280;59834;52.124;5.422;2023-07-28T00:28:54;100451.31;;;17.56;100.00
71964;BME280;59834;52.124;5.422;2023-07-28T00:31:21;100458.25;;;17.57;100.00
71964;BME280;59834;52.124;5.422;2023-07-28T00:33:48;100450.50;;;17.55;100.00
71964;BME280;59834;52.124;5.422;2023-07-28T00:36:14;100449.66;;;17.55;100.00
71964;BME280;59834;52.124;5.422;2023-07-28T00:38:41;100448.97;;;17.53;100.00
71964;BME280;59834;52.124;5.422;2023-07-28T00:41:08;100444.69;;;17.52;100.00
71964;BME280;59834;52.124;5.422;2023-07-28T00:43:35;100456.09;;;17.52;100.00
71964;BME280;59834;52.124;5.422;2023-07-28T00:46:02;100454.44;;;17.51;100.00
71964;BME280;59834;52.124;5.422;2023-07-28T00:48:28;100452.75;;;17.50;100.00
71964;BME280;59834;52.124;5.422;2023-07-28T00:50:55;100449.97;;;17.52;100.00
71964;BME280;59834;52.124;5.422;2023-07-28T00:53:23;100443.84;;;17.51;100.00
71964;BME280;59834;52.124;5.422;2023-07-28T00:55:51;100447.47;;;17.50;100.00
71964;BME280;59834;52.124;5.422;2023-07-28T00:58:18;100443.97;;;17.50;100.00
71964;BME280;59834;52.124;5.422;2023-07-28T01:00:45;100435.22;;;17.49;100.00
71964;BME280;59834;52.124;5.422;2023-07-28T01:03:11;100441.34;;;17.50;100.00
71964;BME280;59834;52.124;5.422;2023-07-28T01:08:34;100449.56;;;17.47;100.00
71964;BME280;59834;52.124;5.422;2023-07-28T01:11:01;100458.38;;;17.47;100.00
71964;BME280;59834;52.124;5.422;2023-07-28T01:13:28;100453.09;;;17.47;100.00
71964;BME280;59834;52.124;5.422;2023-07-28T01:15:54;100456.56;;;17.48;100.00
71964;BME280;59834;52.124;5.422;2023-07-28T01:18:21;100458.38;;;17.47;100.00
71964;BME280;59834;52.124;5.422;2023-07-28T01:20:50;100461.16;;;17.46;100.00
71964;BME280;59834;52.124;5.422;2023-07-28T01:26:39;100453.38;;;17.44;100.00
71964;BME280;59834;52.124;5.422;2023-07-28T01:29:08;100458.81;;;17.42;100.00
71964;BME280;59834;52.124;5.422;2023-07-28T01:31:35;100471.22;;;17.42;100.00
71964;BME280;59834;52.124;5.422;2023-07-28T01:34:02;100462.28;;;17.43;100.00
71964;BME280;59834;52.124;5.422;2023-07-28T01:36:28;100473.69;;;17.43;100.00
71964;BME280;59834;52.124;5.422;2023-07-28T01:38:55;100470.09;;;17.44;100.00
71964;BME280;59834;52.124;5.422;2023-07-28T01:41:22;100468.25;;;17.45;100.00
71964;BME280;59834;52.124;5.422;2023-07-28T01:43:48;100474.38;;;17.46;100.00
71964;BME280;59834;52.124;5.422;2023-07-28T01:46:15;100477.84;;;17.46;100.00
71964;BME280;59834;52.124;5.422;2023-07-28T01:48:41;100473.38;;;17.47;100.00
71964;BME280;59834;52.124;5.422;2023-07-28T01:51:09;100470.91;;;17.45;100.00
71964;BME280;59834;52.124;5.422;2023-07-28T01:53:35;100462.97;;;17.45;100.00
71964;BME280;59834;52.124;5.422;2023-07-28T01:56:02;100469.25;;;17.44;100.00
71964;BME280;59834;52.124;5.422;2023-07-28T01:58:29;100469.09;;;17.46;100.00
71964;BME280;59834;52.124;5.422;2023-07-28T02:00:55;100467.44;;;17.44;100.00
71964;BME280;59834;52.124;5.422;2023-07-28T02:03:22;100464.78;;;17.44;100.00
71964;BME280;59834;52.124;5.422;2023-07-28T02:05:49;100469.09;;;17.46;100.00
71964;BME280;59834;52.124;5.422;2023-07-28T02:08:16;100464.78;;;17.44;100.00
71964;BME280;59834;52.124;5.422;2023-07-28T02:10:44;100467.44;;;17.44;100.00
71964;BME280;59834;52.124;5.422;2023-07-28T02:13:11;100472.84;;;17.43;100.00
71964;BME280;59834;52.124;5.422;2023-07-28T02:15:37;100480.97;;;17.41;100.00
71964;BME280;59834;52.124;5.422;2023-07-28T02:18:07;100475.66;;;17.41;100.00
71964;BME280;59834;52.124;5.422;2023-07-28T02:20:33;100475.66;;;17.41;100.00
71964;BME280;59834;52.124;5.422;2023-07-28T02:23:02;100469.56;;;17.41;100.00
71964;BME280;59834;52.124;5.422;2023-07-28T02:25:29;100463.44;;;17.40;100.00
71964;BME280;59834;52.124;5.422;2023-07-28T02:27:56;100467.03;;;17.39;100.00
71964;BME280;59834;52.124;5.422;2023-07-28T02:30:22;100465.38;;;17.38;100.00
71964;BME280;59834;52.124;5.422;2023-07-28T02:32:49;100474.31;;;17.37;100.00
71964;BME280;59834;52.124;5.422;2023-07-28T02:35:16;100463.72;;;17.37;100.00
71964;BME280;59834;52.124;5.422;2023-07-28T02:37:46;100456.75;;;17.36;100.00
71964;BME280;59834;52.124;5.422;2023-07-28T02:40:13;100459.41;;;17.36;100.00
71964;BME280;59834;52.124;5.422;2023-07-28T02:42:39;100467.34;;;17.36;100.00
71964;BME280;59834;52.124;5.422;2023-07-28T02:45:06;100473.47;;;17.37;100.00
71964;BME280;59834;52.124;5.422;2023-07-28T02:47:33;100474.31;;;17.37;100.00
71964;BME280;59834;52.124;5.422;2023-07-28T02:50:00;100485.72;;;17.38;100.00
71964;BME280;59834;52.124;5.422;2023-07-28T02:52:26;100481.25;;;17.38;100.00
71964;BME280;59834;52.124;5.422;2023-07-28T02:54:55;100484.91;;;17.37;100.00
71964;BME280;59834;52.124;5.422;2023-07-28T02:57:22;100480.44;;;17.38;100.00
71964;BME280;59834;52.124;5.422;2023-07-28T02:59:48;100492.66;;;17.39;100.00
71964;BME280;59834;52.124;5.422;2023-07-28T03:02:15;100491.69;;;17.40;100.00
71964;BME280;59834;52.124;5.422;2023-07-28T03:04:41;100487.38;;;17.39;100.00
71964;BME280;59834;52.124;5.422;2023-07-28T03:07:08;100492.53;;;17.40;100.00
71964;BME280;59834;52.124;5.422;2023-07-28T03:09:35;100494.31;;;17.40;100.00
71964;BME280;59834;52.124;5.422;2023-07-28T03:12:01;100490.84;;;17.39;100.00
71964;BME280;59834;52.124;5.422;2023-07-28T03:14:29;100497.13;;;17.38;100.00
71964;BME280;59834;52.124;5.422;2023-07-28T03:16:56;100495.47;;;17.37;100.00
71964;BME280;59834;52.124;5.422;2023-07-28T03:19:22;100493.78;;;17.36;100.00
71964;BME280;59834;52.124;5.422;2023-07-28T03:21:49;100499.91;;;17.37;100.00
71964;BME280;59834;52.124;5.422;2023-07-28T03:24:15;100508.84;;;17.36;100.00
71964;BME280;59834;52.124;5.422;2023-07-28T03:26:42;100508.00;;;17.35;100.00
71964;BME280;59834;52.124;5.422;2023-07-28T03:29:08;100508.84;;;17.36;100.00
71964;BME280;59834;52.124;5.422;2023-07-28T03:31:35;100505.38;;;17.35;100.00
71964;BME280;59834;52.124;5.422;2023-07-28T03:34:03;100509.97;;;17.33;100.00
71964;BME280;59834;52.124;5.422;2023-07-28T03:36:30;100516.09;;;17.34;100.00
71964;BME280;59834;52.124;5.422;2023-07-28T03:38:56;100515.25;;;17.33;100.00
71964;BME280;59834;52.124;5.422;2023-07-28T03:41:23;100511.66;;;17.34;100.00
71964;BME280;59834;52.124;5.422;2023-07-28T03:43:49;100515.94;;;17.35;100.00
71964;BME280;59834;52.124;5.422;2023-07-28T03:46:16;100522.88;;;17.36;100.00
71964;BME280;59834;52.124;5.422;2023-07-28T03:48:42;100524.72;;;17.36;100.00
71964;BME280;59834;52.124;5.422;2023-07-28T03:51:09;100521.94;;;17.37;100.00
71964;BME280;59834;52.124;5.422;2023-07-28T03:53:35;100524.56;;;17.37;100.00
71964;BME280;59834;52.124;5.422;2023-07-28T03:56:04;100517.47;;;17.38;100.00
71964;BME280;59834;52.124;5.422;2023-07-28T03:58:31;100515.66;;;17.38;100.00
71964;BME280;59834;52.124;5.422;2023-07-28T04:00:58;100518.28;;;17.38;100.00
71964;BME280;59834;52.124;5.422;2023-07-28T04:03:24;100522.59;;;17.39;100.00
71964;BME280;59834;52.124;5.422;2023-07-28T04:05:51;100519.13;;;17.39;100.00
71964;BME280;59834;52.124;5.422;2023-07-28T04:08:17;100519.13;;;17.39;100.00
71964;BME280;59834;52.124;5.422;2023-07-28T04:10:44;100515.78;;;17.37;100.00
71964;BME280;59834;52.124;5.422;2023-07-28T04:13:11;100527.22;;;17.37;100.00
71964;BME280;59834;52.124;5.422;2023-07-28T04:15:37;100525.25;;;17.39;100.00
71964;BME280;59834;52.124;5.422;2023-07-28T04:18:04;100525.25;;;17.39;100.00
71964;BME280;59834;52.124;5.422;2023-07-28T04:20:30;100525.09;;;17.41;100.00
71964;BME280;59834;52.124;5.422;2023-07-28T04:22:57;100524.13;;;17.42;100.00
71964;BME280;59834;52.124;5.422;2023-07-28T04:25:23;100520.47;;;17.43;100.00
71964;BME280;59834;52.124;5.422;2023-07-28T04:27:50;100519.66;;;17.42;100.00
71964;BME280;59834;52.124;5.422;2023-07-28T04:30:17;100521.31;;;17.43;100.00
71964;BME280;59834;52.124;5.422;2023-07-28T04:32:43;100528.28;;;17.44;100.00
71964;BME280;59834;52.124;5.422;2023-07-28T04:35:10;100532.59;;;17.46;100.00
71964;BME280;59834;52.124;5.422;2023-07-28T04:37:36;100535.22;;;17.46;100.00
71964;BME280;59834;52.124;5.422;2023-07-28T04:40:03;100534.41;;;17.45;100.00
71964;BME280;59834;52.124;5.422;2023-07-28T04:42:30;100529.94;;;17.46;100.00
71964;BME280;59834;52.124;5.422;2023-07-28T04:44:57;100540.53;;;17.46;100.00
71964;BME280;59834;52.124;5.422;2023-07-28T04:47:23;100540.69;;;17.44;100.00
71964;BME280;59834;52.124;5.422;2023-07-28T04:49:50;100539.69;;;17.45;100.00
71964;BME280;59834;52.124;5.422;2023-07-28T04:52:16;100541.34;;;17.46;100.00
71964;BME280;59834;52.124;5.422;2023-07-28T04:54:43;100539.53;;;17.47;100.00
71964;BME280;59834;52.124;5.422;2023-07-28T04:57:09;100543.03;;;17.47;100.00
71964;BME280;59834;52.124;5.422;2023-07-28T04:59:38;100544.00;;;17.46;100.00
71964;BME280;59834;52.124;5.422;2023-07-28T05:02:06;100546.66;;;17.46;100.00
71964;BME280;59834;52.124;5.422;2023-07-28T05:04:32;100544.16;;;17.44;100.00
71964;BME280;59834;52.124;5.422;2023-07-28T05:06:59;100546.66;;;17.46;100.00
71964;BME280;59834;52.124;5.422;2023-07-28T05:09:26;100550.00;;;17.48;100.00
71964;BME280;59834;52.124;5.422;2023-07-28T05:11:54;100546.22;;;17.51;100.00
71964;BME280;59834;52.124;5.422;2023-07-28T05:14:21;100546.88;;;17.53;100.00
71964;BME280;59834;52.124;5.422;2023-07-28T05:16:48;100539.63;;;17.55;100.00
71964;BME280;59834;52.124;5.422;2023-07-28T05:19:14;100546.97;;;17.61;100.00
71964;BME280;59834;52.124;5.422;2023-07-28T05:21:41;100549.34;;;17.64;100.00
71964;BME280;59834;52.124;5.422;2023-07-28T05:24:08;100549.34;;;17.64;100.00
71964;BME280;59834;52.124;5.422;2023-07-28T05:26:35;100551.00;;;17.65;100.00
71964;BME280;59834;52.124;5.422;2023-07-28T05:29:01;100546.53;;;17.65;100.00
71964;BME280;59834;52.124;5.422;2023-07-28T05:31:28;100539.94;;;17.70;100.00
71964;BME280;59834;52.124;5.422;2023-07-28T05:33:54;100538.50;;;17.75;100.00
71964;BME280;59834;52.124;5.422;2023-07-28T05:36:21;100538.91;;;17.80;100.00
71964;BME280;59834;52.124;5.422;2023-07-28T05:38:47;100538.91;;;17.80;100.00
71964;BME280;59834;52.124;5.422;2023-07-28T05:41:14;100542.53;;;17.79;100.00
71964;BME280;59834;52.124;5.422;2023-07-28T05:43:42;100546.84;;;17.80;100.00
71964;BME280;59834;52.124;5.422;2023-07-28T05:46:08;100542.78;;;17.86;100.00
71964;BME280;59834;52.124;5.422;2023-07-28T05:48:35;100545.81;;;17.91;100.00
71964;BME280;59834;52.124;5.422;2023-07-28T05:51:02;100554.72;;;17.90;100.00
71964;BME280;59834;52.124;5.422;2023-07-28T05:53:28;100559.19;;;17.89;100.00
71964;BME280;59834;52.124;5.422;2023-07-28T05:55:55;100560.25;;;17.97;100.00
71964;BME280;59834;52.124;5.422;2023-07-28T05:58:22;100561.63;;;18.01;100.00
71964;BME280;59834;52.124;5.422;2023-07-28T06:00:49;100562.59;;;18.00;100.00
71964;BME280;59834;52.124;5.422;2023-07-28T06:03:16;100568.56;;;18.02;100.00
71964;BME280;59834;52.124;5.422;2023-07-28T06:05:43;100566.59;;;18.04;100.00
71964;BME280;59834;52.124;5.422;2023-07-28T06:08:09;100567.59;;;18.03;100.00
71964;BME280;59834;52.124;5.422;2023-07-28T06:10:36;100570.22;;;18.03;100.00
71964;BME280;59834;52.124;5.422;2023-07-28T06:13:03;100576.22;;;18.05;100.00
71964;BME280;59834;52.124;5.422;2023-07-28T06:15:30;100576.22;;;18.05;100.00
71964;BME280;59834;52.124;5.422;2023-07-28T06:17:56;100568.94;;;18.07;100.00
71964;BME280;59834;52.124;5.422;2023-07-28T06:20:23;100577.94;;;18.14;100.00
71964;BME280;59834;52.124;5.422;2023-07-28T06:22:50;100572.41;;;18.25;100.00
71964;BME280;59834;52.124;5.422;2023-07-28T06:25:17;100584.09;;;18.41;100.00
71964;BME280;59834;52.124;5.422;2023-07-28T06:27:44;100582.06;;;18.52;100.00
71964;BME280;59834;52.124;5.422;2023-07-28T06:30:11;100580.75;;;18.56;100.00
71964;BME280;59834;52.124;5.422;2023-07-28T06:32:37;100585.53;;;18.53;100.00
71964;BME280;59834;52.124;5.422;2023-07-28T06:35:05;100588.03;;;18.54;100.00
71964;BME280;59834;52.124;5.422;2023-07-28T06:37:34;100591.50;;;18.55;100.00
71964;BME280;59834;52.124;5.422;2023-07-28T06:40:01;100585.69;;;18.51;100.00
71964;BME280;59834;52.124;5.422;2023-07-28T06:42:28;100592.44;;;18.46;100.00
71964;BME280;59834;52.124;5.422;2023-07-28T06:44:54;100602.34;;;18.44;100.00
71964;BME280;59834;52.124;5.422;2023-07-28T06:47:21;100606.69;;;18.45;100.00
71964;BME280;59834;52.124;5.422;2023-07-28T06:49:48;100622.19;;;18.40;100.00
71964;BME280;59834;52.124;5.422;2023-07-28T06:52:15;100617.59;;;18.42;100.00
71964;BME280;59834;52.124;5.422;2023-07-28T06:54:41;100619.53;;;18.40;100.00
71964;BME280;59834;52.124;5.422;2023-07-28T06:57:08;100612.59;;;18.38;100.00
71964;BME280;59834;52.124;5.422;2023-07-28T06:59:35;100617.06;;;18.38;100.00
71964;BME280;59834;52.124;5.422;2023-07-28T07:02:01;100622.19;;;18.40;100.00
71964;BME280;59834;52.124;5.422;2023-07-28T07:04:28;100631.28;;;18.37;100.00
71964;BME280;59834;52.124;5.422;2023-07-28T07:06:54;100621.50;;;18.37;100.00
71964;BME280;59834;52.124;5.422;2023-07-28T07:09:21;100634.44;;;18.41;100.00
71964;BME280;59834;52.124;5.422;2023-07-28T07:11:47;100624.84;;;18.40;100.00
71964;BME280;59834;52.124;5.422;2023-07-28T07:14:14;100631.78;;;18.41;100.00
71964;BME280;59834;52.124;5.422;2023-07-28T07:16:41;100633.53;;;18.50;100.00
71964;BME280;59834;52.124;5.422;2023-07-28T07:19:08;100636.19;;;18.50;100.00
71964;BME280;59834;52.124;5.422;2023-07-28T07:21:35;100638.19;;;18.48;100.00
71964;BME280;59834;52.124;5.422;2023-07-28T07:24:03;100633.00;;;18.46;100.00
71964;BME280;59834;52.124;5.422;2023-07-28T07:26:30;100640.66;;;18.49;100.00
71964;BME280;59834;52.124;5.422;2023-07-28T07:28:59;100637.53;;;18.54;100.00
71964;BME280;59834;52.124;5.422;2023-07-28T07:31:26;100647.69;;;18.58;100.00
71964;BME280;59834;52.124;5.422;2023-07-28T07:33:53;100642.91;;;18.62;100.00
71964;BME280;59834;52.124;5.422;2023-07-28T07:36:19;100640.78;;;18.66;100.00
71964;BME280;59834;52.124;5.422;2023-07-28T07:38:47;100646.91;;;18.66;100.00
71964;BME280;59834;52.124;5.422;2023-07-28T07:41:15;100651.53;;;18.64;100.00
71964;BME280;59834;52.124;5.422;2023-07-28T07:43:49;100656.69;;;18.66;100.00
71964;BME280;59834;52.124;5.422;2023-07-28T07:46:16;100656.69;;;18.66;100.00
71964;BME280;59834;52.124;5.422;2023-07-28T07:48:42;100666.16;;;18.68;100.00
71964;BME280;59834;52.124;5.422;2023-07-28T07:51:09;100661.81;;;18.67;100.00
71964;BME280;59834;52.124;5.422;2023-07-28T07:53:36;100662.91;;;18.74;100.00
71964;BME280;59834;52.124;5.422;2023-07-28T07:56:03;100673.09;;;18.87;100.00
71964;BME280;59834;52.124;5.422;2023-07-28T07:58:30;100677.66;;;18.95;100.00
71964;BME280;59834;52.124;5.422;2023-07-28T08:00:57;100671.09;;;19.07;100.00
71964;BME280;59834;52.124;5.422;2023-07-28T08:03:23;100678.16;;;19.24;100.00
71964;BME280;59834;52.124;5.422;2023-07-28T08:05:51;100679.72;;;19.35;100.00
71964;BME280;59834;52.124;5.422;2023-07-28T08:08:18;100677.88;;;19.36;100.00
71964;BME280;59834;52.124;5.422;2023-07-28T08:10:46;100682.56;;;19.42;100.00
71964;BME280;59834;52.124;5.422;2023-07-28T08:13:14;100682.28;;;19.53;100.00
71964;BME280;59834;52.124;5.422;2023-07-28T08:15:44;100679.81;;;19.60;100.00
71964;BME280;59834;52.124;5.422;2023-07-28T08:18:12;100682.25;;;19.79;100.00
71964;BME280;59834;52.124;5.422;2023-07-28T08:20:39;100679.47;;;20.05;100.00
71964;BME280;59834;52.124;5.422;2023-07-28T08:23:06;100678.38;;;20.32;100.00
71964;BME280;59834;52.124;5.422;2023-07-28T08:25:32;100678.56;;;20.55;100.00
71964;BME280;59834;52.124;5.422;2023-07-28T08:28:01;100682.25;;;20.70;98.43
71964;BME280;59834;52.124;5.422;2023-07-28T08:30:28;100678.56;;;20.88;97.17
71964;BME280;59834;52.124;5.422;2023-07-28T08:32:54;100683.69;;;21.14;95.83
71964;BME280;59834;52.124;5.422;2023-07-28T08:35:21;100681.66;;;21.24;95.04
71964;BME280;59834;52.124;5.422;2023-07-28T08:37:47;100688.13;;;21.38;94.14
71964;BME280;59834;52.124;5.422;2023-07-28T08:40:14;100697.09;;;21.29;93.23
71964;BME280;59834;52.124;5.422;2023-07-28T08:42:40;100694.16;;;21.07;94.50
71964;BME280;59834;52.124;5.422;2023-07-28T08:45:08;100695.19;;;20.82;94.44
71964;BME280;59834;52.124;5.422;2023-07-28T08:47:36;100693.03;;;20.77;94.69
71964;BME280;59834;52.124;5.422;2023-07-28T08:50:04;100694.69;;;20.86;96.92
71964;BME280;59834;52.124;5.422;2023-07-28T08:52:32;100691.50;;;20.99;95.36
71964;BME280;59834;52.124;5.422;2023-07-28T08:54:59;100699.84;;;20.96;95.33
71964;BME280;59834;52.124;5.422;2023-07-28T08:57:27;100693.53;;;20.81;94.71
71964;BME280;59834;52.124;5.422;2023-07-28T08:59:54;100699.50;;;20.75;95.71
71964;BME280;59834;52.124;5.422;2023-07-28T09:02:20;100707.31;;;20.84;97.18
71964;BME280;59834;52.124;5.422;2023-07-28T09:04:48;100700.34;;;20.91;95.42
71964;BME280;59834;52.124;5.422;2023-07-28T09:07:15;100706.50;;;21.00;93.88
71964;BME280;59834;52.124;5.422;2023-07-28T09:09:42;100702.66;;;21.03;94.48
71964;BME280;59834;52.124;5.422;2023-07-28T09:12:09;100704.50;;;20.94;92.83
71964;BME280;59834;52.124;5.422;2023-07-28T09:14:36;100707.00;;;20.87;94.50
71964;BME280;59834;52.124;5.422;2023-07-28T09:17:11;100706.66;;;21.07;93.38
71964;BME280;59834;52.124;5.422;2023-07-28T09:19:53;100709.81;;;21.10;91.93
71964;BME280;59834;52.124;5.422;2023-07-28T09:22:20;100702.44;;;21.29;91.33
71964;BME280;59834;52.124;5.422;2023-07-28T09:24:47;100714.84;;;21.53;90.89
71964;BME280;59834;52.124;5.422;2023-07-28T09:27:22;100714.31;;;21.65;89.46
71964;BME280;59834;52.124;5.422;2023-07-28T09:29:54;100715.00;;;21.59;87.70
71964;BME280;59834;52.124;5.422;2023-07-28T09:32:30;100712.31;;;21.68;87.59
71964;BME280;59834;52.124;5.422;2023-07-28T09:35:06;100713.97;;;21.77;87.10
71964;BME280;59834;52.124;5.422;2023-07-28T09:37:38;100712.69;;;21.96;83.97
71964;BME280;59834;52.124;5.422;2023-07-28T09:40:10;100716.44;;;22.09;84.12
71964;BME280;59834;52.124;5.422;2023-07-28T09:42:44;100717.38;;;22.25;83.87
71964;BME280;59834;52.124;5.422;2023-07-28T09:45:18;100719.09;;;22.18;84.32
71964;BME280;59834;52.124;5.422;2023-07-28T09:48:05;100714.53;;;22.49;81.02
71964;BME280;59834;52.124;5.422;2023-07-28T09:50:38;100712.66;;;22.58;82.81
71964;BME280;59834;52.124;5.422;2023-07-28T09:53:08;100717.09;;;22.66;81.45
71964;BME280;59834;52.124;5.422;2023-07-28T09:55:35;100716.47;;;22.78;80.96
71964;BME280;59834;52.124;5.422;2023-07-28T09:58:09;100714.34;;;22.97;80.06
71964;BME280;59834;52.124;5.422;2023-07-28T10:00:36;100710.25;;;23.24;78.89
71964;BME280;59834;52.124;5.422;2023-07-28T10:03:03;100710.06;;;23.40;77.54
71964;BME280;59834;52.124;5.422;2023-07-28T10:05:31;100705.91;;;23.23;77.44
71964;BME280;59834;52.124;5.422;2023-07-28T10:07:59;100710.22;;;22.94;79.88
71964;BME280;59834;52.124;5.422;2023-07-28T10:10:26;100710.03;;;22.96;78.48
71964;BME280;59834;52.124;5.422;2023-07-28T10:12:54;100705.28;;;23.21;76.33
71964;BME280;59834;52.124;5.422;2023-07-28T10:15:29;100706.94;;;23.22;77.41
71964;BME280;59834;52.124;5.422;2023-07-28T10:17:57;100704.34;;;23.43;76.15
71964;BME280;59834;52.124;5.422;2023-07-28T10:20:39;100709.13;;;23.33;75.90
71964;BME280;59834;52.124;5.422;2023-07-28T10:23:15;100701.78;;;23.35;76.43
71964;BME280;59834;52.124;5.422;2023-07-28T10:25:44;100710.06;;;23.40;76.02
71964;BME280;59834;52.124;5.422;2023-07-28T10:28:30;100713.81;;;23.90;76.32
71964;BME280;59834;52.124;5.422;2023-07-28T10:30:59;100717.47;;;23.68;73.65
71964;BME280;59834;52.124;5.422;2023-07-28T10:35:58;100702.34;;;24.11;71.65
71964;BME280;59834;52.124;5.422;2023-07-28T10:38:33;100700.91;;;23.94;72.17
71964;BME280;59834;52.124;5.422;2023-07-28T10:41:17;100704.34;;;23.73;72.19
71964;BME280;59834;52.124;5.422;2023-07-28T10:43:45;100704.38;;;24.09;72.37
71964;BME280;59834;52.124;5.422;2023-07-28T10:46:16;100712.38;;;24.45;69.96
71964;BME280;59834;52.124;5.422;2023-07-28T10:48:45;100708.03;;;24.44;68.58
71964;BME280;59834;52.124;5.422;2023-07-28T10:51:20;100702.00;;;23.99;68.83
71964;BME280;59834;52.124;5.422;2023-07-28T10:53:50;100704.50;;;23.86;70.25
71964;BME280;59834;52.124;5.422;2023-07-28T10:56:17;100717.72;;;23.73;71.73
71964;BME280;59834;52.124;5.422;2023-07-28T10:58:45;100715.50;;;23.76;70.19
71964;BME280;59834;52.124;5.422;2023-07-28T11:01:11;100711.22;;;23.97;70.82
71964;BME280;59834;52.124;5.422;2023-07-28T11:03:39;100715.50;;;24.13;71.90
71964;BME280;59834;52.124;5.422;2023-07-28T11:06:06;100724.03;;;24.02;71.42
71964;BME280;59834;52.124;5.422;2023-07-28T11:08:33;100725.00;;;23.79;74.63
71964;BME280;59834;52.124;5.422;2023-07-28T11:11:03;100726.63;;;23.80;73.96
71964;BME280;59834;52.124;5.422;2023-07-28T11:13:30;100728.50;;;23.80;73.66
71964;BME280;59834;52.124;5.422;2023-07-28T11:16:07;100730.34;;;23.79;73.07
71964;BME280;59834;52.124;5.422;2023-07-28T11:18:34;100733.00;;;23.79;73.64
71964;BME280;59834;52.124;5.422;2023-07-28T11:21:00;100733.81;;;23.94;74.76
71964;BME280;59834;52.124;5.422;2023-07-28T11:23:27;100730.63;;;23.69;74.66
71964;BME280;59834;52.124;5.422;2023-07-28T11:25:55;100734.94;;;23.56;75.17
71964;BME280;59834;52.124;5.422;2023-07-28T11:28:21;100735.28;;;23.52;75.82
71964;BME280;59834;52.124;5.422;2023-07-28T11:30:48;100730.50;;;23.63;74.08
71964;BME280;59834;52.124;5.422;2023-07-28T11:33:15;100740.81;;;23.81;73.86
71964;BME280;59834;52.124;5.422;2023-07-28T11:35:44;100740.75;;;23.74;73.63
71964;BME280;59834;52.124;5.422;2023-07-28T11:38:11;100740.44;;;23.39;74.60
71964;BME280;59834;52.124;5.422;2023-07-28T11:40:39;100753.69;;;23.18;75.57
71964;BME280;59834;52.124;5.422;2023-07-28T11:43:06;100745.78;;;23.39;74.94
71964;BME280;59834;52.124;5.422;2023-07-28T11:45:33;100738.56;;;23.78;74.17
71964;BME280;59834;52.124;5.422;2023-07-28T11:48:04;100737.34;;;24.16;73.15
71964;BME280;59834;52.124;5.422;2023-07-28T11:50:38;100735.25;;;24.12;73.27
71964;BME280;59834;52.124;5.422;2023-07-28T11:53:05;100736.97;;;23.83;73.32
71964;BME280;59834;52.124;5.422;2023-07-28T11:55:36;100737.63;;;23.70;75.22
71964;BME280;59834;52.124;5.422;2023-07-28T11:58:04;100744.59;;;24.01;73.55
71964;BME280;59834;52.124;5.422;2023-07-28T12:00:35;100740.97;;;24.09;70.75
71964;BME280;59834;52.124;5.422;2023-07-28T12:03:12;100738.63;;;24.20;72.77
71964;BME280;59834;52.124;5.422;2023-07-28T12:05:41;100739.44;;;24.57;71.12
71964;BME280;59834;52.124;5.422;2023-07-28T12:08:39;100741.16;;;24.43;70.48
71964;BME280;59834;52.124;5.422;2023-07-28T12:11:11;100741.38;;;24.27;69.68
71964;BME280;59834;52.124;5.422;2023-07-28T12:13:51;100741.56;;;24.62;69.76
71964;BME280;59834;52.124;5.422;2023-07-28T12:16:40;100739.69;;;24.84;68.66
71964;BME280;59834;52.124;5.422;2023-07-28T12:19:13;100742.72;;;25.02;68.37
71964;BME280;59834;52.124;5.422;2023-07-28T12:21:40;100739.00;;;24.75;68.68
71964;BME280;59834;52.124;5.422;2023-07-28T12:24:07;100738.50;;;24.43;69.38
71964;BME280;59834;52.124;5.422;2023-07-28T12:26:34;100744.94;;;24.49;69.24
71964;BME280;59834;52.124;5.422;2023-07-28T12:29:05;100752.97;;;24.49;68.16
71964;BME280;59834;52.124;5.422;2023-07-28T12:31:35;100749.00;;;24.66;67.15
71964;BME280;59834;52.124;5.422;2023-07-28T12:34:11;100740.91;;;24.60;66.40
71964;BME280;59834;52.124;5.422;2023-07-28T12:36:51;100739.63;;;24.77;64.83
71964;BME280;59834;52.124;5.422;2023-07-28T12:39:20;100735.09;;;24.99;64.17
71964;BME280;59834;52.124;5.422;2023-07-28T12:41:50;100741.19;;;25.14;64.60
71964;BME280;59834;52.124;5.422;2023-07-28T12:44:40;100731.25;;;25.08;64.31
71964;BME280;59834;52.124;5.422;2023-07-28T12:47:10;100733.53;;;25.11;64.40
71964;BME280;59834;52.124;5.422;2023-07-28T12:49:37;100747.06;;;25.31;62.63
71964;BME280;59834;52.124;5.422;2023-07-28T12:52:05;100738.81;;;25.26;64.35
71964;BME280;59834;52.124;5.422;2023-07-28T12:54:45;100753.34;;;25.45;64.77
71964;BME280;59834;52.124;5.422;2023-07-28T12:57:12;100744.41;;;25.66;63.15